FACV

Calvinia Airport

Calvinia, South Africa
METAR FACV 240841Z 07011KT CAVOK 25/M04 Q1016
Observed Flight Rules
Sep-24 @ 08:41 UTC (5 hours ago) Visual Flight Rules
Wind Visibility Clouds
70° at 11 knots 10,000+ meters
  • Clear skies
Temperatures Readings
Current 25°C / 77°F
Dewpoint -4°C / 25°F
Humidity 14%
Altimeter 30" Hg
Pressure 1016 hPa
Elevation 977
METAR FACV 240841Z 07011KT CAVOK 25/M04 Q1016
Observed Flight Rules
Sep-24 @ 08:41 UTC
(5 hours ago)
VFR
Wind Visibility
70° at 11 knots 10,000+ meters
Clouds
  • Clear skies
Temperature Dewpoint
25°C / 77°F -4°C / 25°F
Humidity Altimeter Pressure
14% 30" Hg 1016 hPa